Grass Rope, South Dakota
Current Conditions -  °F | °C
As of 6:35 AM on Sunday 23 Nov 2014 (Local Time) from K9V9 Reporting Station
Overcast Overcast  
Wind Chill: 32°   Ceiling: 7500
Heat Index: 38°   Visibility: 10mi
Dew Point: 35°   Wind: 9mph
Humidity: 86%   Direction: 280°W
Pressure: 29.55"   Gusts: NA
Location:  43.8324°N, 99.5368°W
Report Text: K9V9 231235Z AUTO 28008KT 10SM OVC075 04/02 A2955 RMK AO2 T00360015
Loading
Personal Weather Stations






























Interactive Weather Map New forecast layout! Learn more

10-Day Weather Forecast

Advertisements
Track Severe Weather on mobile